sensor_id;sensor_type;location;lat;lon;timestamp;temperature;humidity
56300;DHT22;42209;6.376;-10.782;2022-09-27T00:01:13;23.10;63.00
56300;DHT22;42209;6.376;-10.782;2022-09-27T00:03:42;23.20;63.90
56300;DHT22;42209;6.376;-10.782;2022-09-27T00:06:26;23.30;65.30
56300;DHT22;42209;6.376;-10.782;2022-09-27T00:08:55;23.30;65.70
56300;DHT22;42209;6.376;-10.782;2022-09-27T00:11:33;23.50;65.90
56300;DHT22;42209;6.376;-10.782;2022-09-27T00:14:03;23.50;66.00
56300;DHT22;42209;6.376;-10.782;2022-09-27T00:16:34;23.60;66.00
56300;DHT22;42209;6.376;-10.782;2022-09-27T00:19:12;23.50;60.60
56300;DHT22;42209;6.376;-10.782;2022-09-27T00:21:42;23.20;59.10
56300;DHT22;42209;6.376;-10.782;2022-09-27T00:24:14;23.10;57.40
56300;DHT22;42209;6.376;-10.782;2022-09-27T00:26:43;23.00;56.10
56300;DHT22;42209;6.376;-10.782;2022-09-27T00:29:12;23.00;57.30
56300;DHT22;42209;6.376;-10.782;2022-09-27T00:31:41;23.00;61.00
56300;DHT22;42209;6.376;-10.782;2022-09-27T00:34:22;23.10;63.00
56300;DHT22;42209;6.376;-10.782;2022-09-27T00:36:51;23.20;65.00
56300;DHT22;42209;6.376;-10.782;2022-09-27T00:39:20;23.30;65.40
56300;DHT22;42209;6.376;-10.782;2022-09-27T00:41:48;23.40;65.80
56300;DHT22;42209;6.376;-10.782;2022-09-27T00:47:25;23.50;66.20
56300;DHT22;42209;6.376;-10.782;2022-09-27T00:50:06;23.60;63.20
56300;DHT22;42209;6.376;-10.782;2022-09-27T00:55:14;23.10;58.40
56300;DHT22;42209;6.376;-10.782;2022-09-27T00:57:44;23.00;56.70
56300;DHT22;42209;6.376;-10.782;2022-09-27T01:00:14;23.00;56.40
56300;DHT22;42209;6.376;-10.782;2022-09-27T01:02:46;23.00;60.40
56300;DHT22;42209;6.376;-10.782;2022-09-27T01:05:18;23.10;62.60
56300;DHT22;42209;6.376;-10.782;2022-09-27T01:07:47;23.20;64.30
56300;DHT22;42209;6.376;-10.782;2022-09-27T01:10:17;23.20;65.30
56300;DHT22;42209;6.376;-10.782;2022-09-27T01:13:25;23.30;65.90
56300;DHT22;42209;6.376;-10.782;2022-09-27T01:19:03;23.50;66.30
56300;DHT22;42209;6.376;-10.782;2022-09-27T01:22:14;23.60;64.40
56300;DHT22;42209;6.376;-10.782;2022-09-27T01:30:41;22.90;56.60
56300;DHT22;42209;6.376;-10.782;2022-09-27T01:38:59;23.10;64.00
56300;DHT22;42209;6.376;-10.782;2022-09-27T01:42:01;23.20;65.30
56300;DHT22;42209;6.376;-10.782;2022-09-27T01:44:48;23.30;66.20
56300;DHT22;42209;6.376;-10.782;2022-09-27T01:47:23;23.40;66.50
56300;DHT22;42209;6.376;-10.782;2022-09-27T01:50:14;23.50;66.70
56300;DHT22;42209;6.376;-10.782;2022-09-27T01:52:52;23.50;66.60
56300;DHT22;42209;6.376;-10.782;2022-09-27T01:55:27;23.50;61.10
56300;DHT22;42209;6.376;-10.782;2022-09-27T01:58:32;23.20;59.60
56300;DHT22;42209;6.376;-10.782;2022-09-27T02:01:04;23.00;57.90
56300;DHT22;42209;6.376;-10.782;2022-09-27T02:03:36;22.90;59.10
56300;DHT22;42209;6.376;-10.782;2022-09-27T02:06:38;23.00;62.40
56300;DHT22;42209;6.376;-10.782;2022-09-27T02:09:29;23.10;64.20
56300;DHT22;42209;6.376;-10.782;2022-09-27T02:12:24;23.20;65.80
56300;DHT22;42209;6.376;-10.782;2022-09-27T02:15:00;23.30;66.70
56300;DHT22;42209;6.376;-10.782;2022-09-27T02:20:43;23.40;67.40
56300;DHT22;42209;6.376;-10.782;2022-09-27T02:23:40;23.50;67.30
56300;DHT22;42209;6.376;-10.782;2022-09-27T02:26:30;23.50;63.20
56300;DHT22;42209;6.376;-10.782;2022-09-27T02:31:49;23.10;58.50
56300;DHT22;42209;6.376;-10.782;2022-09-27T02:34:23;23.00;57.30
56300;DHT22;42209;6.376;-10.782;2022-09-27T02:36:53;22.90;60.20
56300;DHT22;42209;6.376;-10.782;2022-09-27T02:39:23;23.00;63.00
56300;DHT22;42209;6.376;-10.782;2022-09-27T02:42:00;23.10;64.40
56300;DHT22;42209;6.376;-10.782;2022-09-27T02:44:29;23.20;65.70
56300;DHT22;42209;6.376;-10.782;2022-09-27T02:53:29;23.40;67.20
56300;DHT22;42209;6.376;-10.782;2022-09-27T03:04:42;23.00;58.10
56300;DHT22;42209;6.376;-10.782;2022-09-27T03:07:12;23.00;60.40
56300;DHT22;42209;6.376;-10.782;2022-09-27T03:09:45;23.00;63.00
56300;DHT22;42209;6.376;-10.782;2022-09-27T03:12:16;23.10;64.60
56300;DHT22;42209;6.376;-10.782;2022-09-27T03:14:45;23.20;65.90
56300;DHT22;42209;6.376;-10.782;2022-09-27T03:17:33;23.20;66.90
56300;DHT22;42209;6.376;-10.782;2022-09-27T03:20:30;23.30;67.40
56300;DHT22;42209;6.376;-10.782;2022-09-27T03:23:08;23.40;67.80
56300;DHT22;42209;6.376;-10.782;2022-09-27T03:25:36;23.50;67.70
56300;DHT22;42209;6.376;-10.782;2022-09-27T03:28:05;23.60;66.70
56300;DHT22;42209;6.376;-10.782;2022-09-27T03:30:33;23.30;61.60
56300;DHT22;42209;6.376;-10.782;2022-09-27T03:33:02;23.10;59.90
56300;DHT22;42209;6.376;-10.782;2022-09-27T03:35:53;23.00;58.70
56300;DHT22;42209;6.376;-10.782;2022-09-27T03:38:21;23.00;59.90
56300;DHT22;42209;6.376;-10.782;2022-09-27T03:40:49;23.00;63.50
56300;DHT22;42209;6.376;-10.782;2022-09-27T03:43:18;23.10;65.10
56300;DHT22;42209;6.376;-10.782;2022-09-27T03:45:46;23.20;66.10
56300;DHT22;42209;6.376;-10.782;2022-09-27T03:48:16;23.30;67.30
56300;DHT22;42209;6.376;-10.782;2022-09-27T03:50:45;23.30;67.90
56300;DHT22;42209;6.376;-10.782;2022-09-27T03:53:13;23.30;68.30
56300;DHT22;42209;6.376;-10.782;2022-09-27T03:55:44;23.40;68.30
56300;DHT22;42209;6.376;-10.782;2022-09-27T03:58:13;23.50;68.20
56300;DHT22;42209;6.376;-10.782;2022-09-27T04:00:41;23.50;66.10
56300;DHT22;42209;6.376;-10.782;2022-09-27T04:03:09;23.30;62.00
56300;DHT22;42209;6.376;-10.782;2022-09-27T04:06:13;23.10;60.50
56300;DHT22;42209;6.376;-10.782;2022-09-27T04:08:44;23.00;58.60
56300;DHT22;42209;6.376;-10.782;2022-09-27T04:11:12;23.00;60.70
56300;DHT22;42209;6.376;-10.782;2022-09-27T04:13:44;23.00;63.70
56300;DHT22;42209;6.376;-10.782;2022-09-27T04:16:12;23.10;65.40
56300;DHT22;42209;6.376;-10.782;2022-09-27T04:19:00;23.10;66.50
56300;DHT22;42209;6.376;-10.782;2022-09-27T04:21:37;23.30;67.60
56300;DHT22;42209;6.376;-10.782;2022-09-27T04:24:08;23.30;68.20
56300;DHT22;42209;6.376;-10.782;2022-09-27T04:26:38;23.30;68.40
56300;DHT22;42209;6.376;-10.782;2022-09-27T04:29:12;23.50;68.60
56300;DHT22;42209;6.376;-10.782;2022-09-27T04:31:47;23.50;68.40
56300;DHT22;42209;6.376;-10.782;2022-09-27T04:34:45;23.50;63.90
56300;DHT22;42209;6.376;-10.782;2022-09-27T04:37:33;23.20;60.80
56300;DHT22;42209;6.376;-10.782;2022-09-27T04:40:04;23.00;59.40
56300;DHT22;42209;6.376;-10.782;2022-09-27T04:42:34;22.90;59.00
56300;DHT22;42209;6.376;-10.782;2022-09-27T04:45:02;22.90;62.80
56300;DHT22;42209;6.376;-10.782;2022-09-27T04:47:31;23.10;64.70
56300;DHT22;42209;6.376;-10.782;2022-09-27T04:49:59;23.10;66.20
56300;DHT22;42209;6.376;-10.782;2022-09-27T04:52:27;23.20;67.20
56300;DHT22;42209;6.376;-10.782;2022-09-27T04:54:56;23.20;67.90
56300;DHT22;42209;6.376;-10.782;2022-09-27T04:57:24;23.30;68.40
56300;DHT22;42209;6.376;-10.782;2022-09-27T04:59:52;23.30;68.60
56300;DHT22;42209;6.376;-10.782;2022-09-27T05:02:21;23.40;68.70
56300;DHT22;42209;6.376;-10.782;2022-09-27T05:05:09;23.50;68.50
56300;DHT22;42209;6.376;-10.782;2022-09-27T05:07:41;23.30;62.90
56300;DHT22;42209;6.376;-10.782;2022-09-27T05:10:15;23.10;61.00
56300;DHT22;42209;6.376;-10.782;2022-09-27T05:12:43;23.00;59.20
56300;DHT22;42209;6.376;-10.782;2022-09-27T05:15:14;22.90;59.30
56300;DHT22;42209;6.376;-10.782;2022-09-27T05:18:17;23.00;63.30
56300;DHT22;42209;6.376;-10.782;2022-09-27T05:21:11;23.10;65.50
56300;DHT22;42209;6.376;-10.782;2022-09-27T05:23:44;23.10;67.00
56300;DHT22;42209;6.376;-10.782;2022-09-27T05:26:14;23.20;68.00
56300;DHT22;42209;6.376;-10.782;2022-09-27T05:28:43;23.20;68.60
56300;DHT22;42209;6.376;-10.782;2022-09-27T05:31:11;23.30;68.80
56300;DHT22;42209;6.376;-10.782;2022-09-27T05:33:39;23.40;68.90
56300;DHT22;42209;6.376;-10.782;2022-09-27T05:36:40;23.50;68.90
56300;DHT22;42209;6.376;-10.782;2022-09-27T05:39:09;23.50;66.20
56300;DHT22;42209;6.376;-10.782;2022-09-27T05:41:37;23.30;62.30
56300;DHT22;42209;6.376;-10.782;2022-09-27T05:44:06;23.00;60.80
56300;DHT22;42209;6.376;-10.782;2022-09-27T05:46:38;22.90;59.50
56300;DHT22;42209;6.376;-10.782;2022-09-27T05:49:07;22.90;62.30
56300;DHT22;42209;6.376;-10.782;2022-09-27T05:51:35;23.00;64.70
56300;DHT22;42209;6.376;-10.782;2022-09-27T05:54:04;23.10;66.30
56300;DHT22;42209;6.376;-10.782;2022-09-27T05:56:33;23.10;67.40
56300;DHT22;42209;6.376;-10.782;2022-09-27T05:59:14;23.20;68.50
56300;DHT22;42209;6.376;-10.782;2022-09-27T06:02:01;23.20;69.00
56300;DHT22;42209;6.376;-10.782;2022-09-27T06:04:55;23.30;69.30
56300;DHT22;42209;6.376;-10.782;2022-09-27T06:07:33;23.40;69.40
56300;DHT22;42209;6.376;-10.782;2022-09-27T06:10:05;23.50;69.50
56300;DHT22;42209;6.376;-10.782;2022-09-27T06:12:34;23.40;65.00
56300;DHT22;42209;6.376;-10.782;2022-09-27T06:15:06;23.30;62.60
56300;DHT22;42209;6.376;-10.782;2022-09-27T06:17:38;23.10;60.50
56300;DHT22;42209;6.376;-10.782;2022-09-27T06:20:13;22.90;59.10
56300;DHT22;42209;6.376;-10.782;2022-09-27T06:22:41;22.90;61.00
56300;DHT22;42209;6.376;-10.782;2022-09-27T06:25:10;23.00;63.90
56300;DHT22;42209;6.376;-10.782;2022-09-27T06:28:09;23.00;65.50
56300;DHT22;42209;6.376;-10.782;2022-09-27T06:30:41;23.10;66.90
56300;DHT22;42209;6.376;-10.782;2022-09-27T06:33:39;23.20;67.70
56300;DHT22;42209;6.376;-10.782;2022-09-27T06:36:08;23.20;68.60
56300;DHT22;42209;6.376;-10.782;2022-09-27T06:38:38;23.30;68.90
56300;DHT22;42209;6.376;-10.782;2022-09-27T06:41:29;23.40;69.00
56300;DHT22;42209;6.376;-10.782;2022-09-27T06:44:04;23.50;68.90
56300;DHT22;42209;6.376;-10.782;2022-09-27T06:47:10;23.50;68.50
56300;DHT22;42209;6.376;-10.782;2022-09-27T06:49:50;23.30;62.50
56300;DHT22;42209;6.376;-10.782;2022-09-27T06:52:18;23.00;61.10
56300;DHT22;42209;6.376;-10.782;2022-09-27T06:54:46;22.80;60.10
56300;DHT22;42209;6.376;-10.782;2022-09-27T06:57:15;22.90;64.00
56300;DHT22;42209;6.376;-10.782;2022-09-27T06:59:43;23.00;65.70
56300;DHT22;42209;6.376;-10.782;2022-09-27T07:02:29;23.10;67.10
56300;DHT22;42209;6.376;-10.782;2022-09-27T07:05:30;23.20;68.10
56300;DHT22;42209;6.376;-10.782;2022-09-27T07:08:16;23.20;69.10
56300;DHT22;42209;6.376;-10.782;2022-09-27T07:10:44;23.30;69.70
56300;DHT22;42209;6.376;-10.782;2022-09-27T07:13:13;23.30;69.90
56300;DHT22;42209;6.376;-10.782;2022-09-27T07:15:41;23.40;69.90
56300;DHT22;42209;6.376;-10.782;2022-09-27T07:18:13;23.50;69.90
56300;DHT22;42209;6.376;-10.782;2022-09-27T07:20:42;23.30;64.30
56300;DHT22;42209;6.376;-10.782;2022-09-27T07:23:10;23.20;62.60
56300;DHT22;42209;6.376;-10.782;2022-09-27T07:25:39;23.00;60.50
56300;DHT22;42209;6.376;-10.782;2022-09-27T07:28:18;23.00;61.70
56300;DHT22;42209;6.376;-10.782;2022-09-27T07:30:54;23.00;65.20
56300;DHT22;42209;6.376;-10.782;2022-09-27T07:33:23;23.00;67.00
56300;DHT22;42209;6.376;-10.782;2022-09-27T07:35:51;23.10;68.40
56300;DHT22;42209;6.376;-10.782;2022-09-27T07:38:19;23.20;69.30
56300;DHT22;42209;6.376;-10.782;2022-09-27T07:40:48;23.20;69.80
56300;DHT22;42209;6.376;-10.782;2022-09-27T07:51:15;23.40;70.40
56300;DHT22;42209;6.376;-10.782;2022-09-27T07:53:50;23.20;63.90
56300;DHT22;42209;6.376;-10.782;2022-09-27T07:56:36;23.00;61.90
56300;DHT22;42209;6.376;-10.782;2022-09-27T07:59:06;22.90;60.80
56300;DHT22;42209;6.376;-10.782;2022-09-27T08:01:35;22.90;63.90
56300;DHT22;42209;6.376;-10.782;2022-09-27T08:04:03;23.00;66.20
56300;DHT22;42209;6.376;-10.782;2022-09-27T08:06:32;23.10;67.70
56300;DHT22;42209;6.376;-10.782;2022-09-27T08:09:04;23.20;68.90
56300;DHT22;42209;6.376;-10.782;2022-09-27T08:11:33;23.20;70.00
56300;DHT22;42209;6.376;-10.782;2022-09-27T08:14:01;23.20;70.50
56300;DHT22;42209;6.376;-10.782;2022-09-27T08:16:35;23.30;70.90
56300;DHT22;42209;6.376;-10.782;2022-09-27T08:19:12;23.30;70.90
56300;DHT22;42209;6.376;-10.782;2022-09-27T08:21:58;23.40;71.40
56300;DHT22;42209;6.376;-10.782;2022-09-27T08:24:33;23.50;70.30
56300;DHT22;42209;6.376;-10.782;2022-09-27T08:27:09;23.30;64.60
56300;DHT22;42209;6.376;-10.782;2022-09-27T08:29:46;23.10;63.20
56300;DHT22;42209;6.376;-10.782;2022-09-27T08:32:15;22.90;60.80
56300;DHT22;42209;6.376;-10.782;2022-09-27T08:34:50;22.80;61.50
56300;DHT22;42209;6.376;-10.782;2022-09-27T08:37:20;23.00;65.50
56300;DHT22;42209;6.376;-10.782;2022-09-27T08:39:49;23.10;67.30
56300;DHT22;42209;6.376;-10.782;2022-09-27T08:42:24;23.10;68.60
56300;DHT22;42209;6.376;-10.782;2022-09-27T08:47:53;23.20;70.70
56300;DHT22;42209;6.376;-10.782;2022-09-27T08:50:29;23.30;71.50
56300;DHT22;42209;6.376;-10.782;2022-09-27T08:53:22;23.30;71.80
56300;DHT22;42209;6.376;-10.782;2022-09-27T08:55:55;23.40;71.90
56300;DHT22;42209;6.376;-10.782;2022-09-27T08:58:40;23.50;71.90
56300;DHT22;42209;6.376;-10.782;2022-09-27T09:01:18;23.40;66.70
56300;DHT22;42209;6.376;-10.782;2022-09-27T09:04:02;23.20;64.80
56300;DHT22;42209;6.376;-10.782;2022-09-27T09:06:49;23.00;62.50
56300;DHT22;42209;6.376;-10.782;2022-09-27T09:12:41;22.90;64.10
56300;DHT22;42209;6.376;-10.782;2022-09-27T09:30:24;23.40;72.70
56300;DHT22;42209;6.376;-10.782;2022-09-27T09:33:42;23.40;72.80
56300;DHT22;42209;6.376;-10.782;2022-09-27T09:36:10;23.50;68.40
56300;DHT22;42209;6.376;-10.782;2022-09-27T09:38:44;23.20;65.20
56300;DHT22;42209;6.376;-10.782;2022-09-27T09:44:11;23.00;61.90
56300;DHT22;42209;6.376;-10.782;2022-09-27T09:46:48;22.90;60.50
56300;DHT22;42209;6.376;-10.782;2022-09-27T09:49:27;22.90;62.50
56300;DHT22;42209;6.376;-10.782;2022-09-27T09:52:10;23.00;65.20
56300;DHT22;42209;6.376;-10.782;2022-09-27T09:57:35;23.10;68.80
56300;DHT22;42209;6.376;-10.782;2022-09-27T10:00:13;23.20;70.20
56300;DHT22;42209;6.376;-10.782;2022-09-27T10:02:50;23.30;71.20
56300;DHT22;42209;6.376;-10.782;2022-09-27T10:05:23;23.30;71.80
56300;DHT22;42209;6.376;-10.782;2022-09-27T10:08:07;23.40;71.80
56300;DHT22;42209;6.376;-10.782;2022-09-27T10:10:39;23.50;71.10
56300;DHT22;42209;6.376;-10.782;2022-09-27T10:13:26;23.30;66.10
56300;DHT22;42209;6.376;-10.782;2022-09-27T10:18:35;23.00;62.30
56300;DHT22;42209;6.376;-10.782;2022-09-27T10:21:12;22.90;61.10
56300;DHT22;42209;6.376;-10.782;2022-09-27T10:24:20;22.90;60.00
56300;DHT22;42209;6.376;-10.782;2022-09-27T10:27:07;22.90;62.50
56300;DHT22;42209;6.376;-10.782;2022-09-27T10:29:38;23.00;65.30
56300;DHT22;42209;6.376;-10.782;2022-09-27T10:32:24;23.10;67.50
56300;DHT22;42209;6.376;-10.782;2022-09-27T10:38:24;23.30;70.20
56300;DHT22;42209;6.376;-10.782;2022-09-27T10:41:24;23.30;70.80
56300;DHT22;42209;6.376;-10.782;2022-09-27T10:46:53;23.50;71.90
56300;DHT22;42209;6.376;-10.782;2022-09-27T10:50:05;23.40;66.50
56300;DHT22;42209;6.376;-10.782;2022-09-27T10:53:18;23.20;64.30
56300;DHT22;42209;6.376;-10.782;2022-09-27T10:55:57;23.10;62.00
56300;DHT22;42209;6.376;-10.782;2022-09-27T10:58:35;23.00;60.50
56300;DHT22;42209;6.376;-10.782;2022-09-27T11:01:09;23.00;59.60
56300;DHT22;42209;6.376;-10.782;2022-09-27T11:03:59;23.00;59.20
56300;DHT22;42209;6.376;-10.782;2022-09-27T11:06:30;23.00;62.20
56300;DHT22;42209;6.376;-10.782;2022-09-27T11:11:48;23.20;67.00
56300;DHT22;42209;6.376;-10.782;2022-09-27T11:14:23;23.20;68.20
56300;DHT22;42209;6.376;-10.782;2022-09-27T11:17:02;23.30;69.30
56300;DHT22;42209;6.376;-10.782;2022-09-27T11:31:20;23.20;62.70
56300;DHT22;42209;6.376;-10.782;2022-09-27T11:40:00;23.00;58.60
56300;DHT22;42209;6.376;-10.782;2022-09-27T11:45:52;23.10;61.40
56300;DHT22;42209;6.376;-10.782;2022-09-27T11:49:25;23.10;63.80
56300;DHT22;42209;6.376;-10.782;2022-09-27T11:57:58;23.40;69.30
56300;DHT22;42209;6.376;-10.782;2022-09-27T12:01:05;23.50;70.30
56300;DHT22;42209;6.376;-10.782;2022-09-27T12:06:44;23.30;64.90
56300;DHT22;42209;6.376;-10.782;2022-09-27T12:09:33;23.20;62.70
56300;DHT22;42209;6.376;-10.782;2022-09-27T12:14:43;23.30;69.90
56300;DHT22;42209;6.376;-10.782;2022-09-27T12:17:35;23.40;71.30
56300;DHT22;42209;6.376;-10.782;2022-09-27T12:20:24;23.50;72.50
56300;DHT22;42209;6.376;-10.782;2022-09-27T12:22:57;23.60;73.30
56300;DHT22;42209;6.376;-10.782;2022-09-27T12:25:51;23.60;73.70
56300;DHT22;42209;6.376;-10.782;2022-09-27T12:40:41;23.20;60.80
56300;DHT22;42209;6.376;-10.782;2022-09-27T12:43:29;23.20;60.20
56300;DHT22;42209;6.376;-10.782;2022-09-27T12:46:47;23.20;60.70
56300;DHT22;42209;6.376;-10.782;2022-09-27T12:49:58;23.30;64.60
56300;DHT22;42209;6.376;-10.782;2022-09-27T12:52:37;23.40;66.90
56300;DHT22;42209;6.376;-10.782;2022-09-27T13:07:12;23.40;64.50
56300;DHT22;42209;6.376;-10.782;2022-09-27T13:12:28;23.60;70.60
56300;DHT22;42209;6.376;-10.782;2022-09-27T13:15:05;23.70;71.60
56300;DHT22;42209;6.376;-10.782;2022-09-27T13:20:43;23.50;64.90
56300;DHT22;42209;6.376;-10.782;2022-09-27T13:26:42;23.40;61.40
56300;DHT22;42209;6.376;-10.782;2022-09-27T13:29:25;23.30;60.20
56300;DHT22;42209;6.376;-10.782;2022-09-27T13:34:50;23.30;59.90
56300;DHT22;42209;6.376;-10.782;2022-09-27T13:46:02;23.60;61.60
56300;DHT22;42209;6.376;-10.782;2022-09-27T13:54:05;23.50;65.30
56300;DHT22;42209;6.376;-10.782;2022-09-27T13:59:38;23.70;65.80
56300;DHT22;42209;6.376;-10.782;2022-09-27T14:02:29;23.60;62.50
56300;DHT22;42209;6.376;-10.782;2022-09-27T14:05:00;23.50;60.70
56300;DHT22;42209;6.376;-10.782;2022-09-27T14:07:41;23.40;59.70
56300;DHT22;42209;6.376;-10.782;2022-09-27T14:10:18;23.40;58.60
56300;DHT22;42209;6.376;-10.782;2022-09-27T14:12:50;23.30;58.50
56300;DHT22;42209;6.376;-10.782;2022-09-27T14:15:30;23.40;60.70
56300;DHT22;42209;6.376;-10.782;2022-09-27T14:18:02;23.50;63.70
56300;DHT22;42209;6.376;-10.782;2022-09-27T14:20:42;23.60;66.10
56300;DHT22;42209;6.376;-10.782;2022-09-27T14:23:30;23.70;67.60
56300;DHT22;42209;6.376;-10.782;2022-09-27T14:25:59;23.70;63.30
56300;DHT22;42209;6.376;-10.782;2022-09-27T14:28:30;23.50;60.90
56300;DHT22;42209;6.376;-10.782;2022-09-27T14:31:12;23.50;61.20
56300;DHT22;42209;6.376;-10.782;2022-09-27T14:34:06;23.60;64.80
56300;DHT22;42209;6.376;-10.782;2022-09-27T14:36:38;23.70;67.70
56300;DHT22;42209;6.376;-10.782;2022-09-27T14:39:31;23.80;65.40
56300;DHT22;42209;6.376;-10.782;2022-09-27T14:42:15;23.60;62.50
56300;DHT22;42209;6.376;-10.782;2022-09-27T14:44:44;23.60;60.80
56300;DHT22;42209;6.376;-10.782;2022-09-27T14:52:25;23.50;58.00
56300;DHT22;42209;6.376;-10.782;2022-09-27T14:55:05;23.50;60.00
56300;DHT22;42209;6.376;-10.782;2022-09-27T14:57:34;23.60;63.10
56300;DHT22;42209;6.376;-10.782;2022-09-27T15:00:20;23.80;61.20
56300;DHT22;42209;6.376;-10.782;2022-09-27T15:02:50;23.60;59.10
56300;DHT22;42209;6.376;-10.782;2022-09-27T15:05:26;23.60;58.80
56300;DHT22;42209;6.376;-10.782;2022-09-27T15:07:57;23.70;62.20
56300;DHT22;42209;6.376;-10.782;2022-09-27T15:10:28;23.80;61.60
56300;DHT22;42209;6.376;-10.782;2022-09-27T15:12:59;23.80;59.10
56300;DHT22;42209;6.376;-10.782;2022-09-27T15:15:31;23.70;57.90
56300;DHT22;42209;6.376;-10.782;2022-09-27T15:18:02;23.60;57.20
56300;DHT22;42209;6.376;-10.782;2022-09-27T15:20:34;23.60;56.40
56300;DHT22;42209;6.376;-10.782;2022-09-27T15:23:04;23.60;56.50
56300;DHT22;42209;6.376;-10.782;2022-09-27T15:25:38;23.70;58.50
56300;DHT22;42209;6.376;-10.782;2022-09-27T15:30:45;23.70;56.10
56300;DHT22;42209;6.376;-10.782;2022-09-27T15:33:27;23.60;55.80
56300;DHT22;42209;6.376;-10.782;2022-09-27T15:35:59;23.70;57.80
56300;DHT22;42209;6.376;-10.782;2022-09-27T15:38:29;23.70;56.30
56300;DHT22;42209;6.376;-10.782;2022-09-27T15:41:03;23.70;54.80
56300;DHT22;42209;6.376;-10.782;2022-09-27T15:43:49;23.60;54.50
56300;DHT22;42209;6.376;-10.782;2022-09-27T15:46:26;23.60;54.20
56300;DHT22;42209;6.376;-10.782;2022-09-27T15:49:19;23.70;56.30
56300;DHT22;42209;6.376;-10.782;2022-09-27T15:51:50;23.80;55.80
56300;DHT22;42209;6.376;-10.782;2022-09-27T15:54:20;23.80;54.20
56300;DHT22;42209;6.376;-10.782;2022-09-27T15:56:50;23.80;54.70
56300;DHT22;42209;6.376;-10.782;2022-09-27T15:59:27;23.80;56.10
56300;DHT22;42209;6.376;-10.782;2022-09-27T16:02:02;23.80;54.70
56300;DHT22;42209;6.376;-10.782;2022-09-27T16:04:34;23.70;53.40
56300;DHT22;42209;6.376;-10.782;2022-09-27T16:07:04;23.70;52.60
56300;DHT22;42209;6.376;-10.782;2022-09-27T16:09:33;23.70;53.20
56300;DHT22;42209;6.376;-10.782;2022-09-27T16:12:01;23.80;54.20
56300;DHT22;42209;6.376;-10.782;2022-09-27T16:14:29;23.80;53.00
56300;DHT22;42209;6.376;-10.782;2022-09-27T16:16:57;23.70;52.40
56300;DHT22;42209;6.376;-10.782;2022-09-27T16:19:28;23.80;52.90
56300;DHT22;42209;6.376;-10.782;2022-09-27T16:21:57;23.80;53.20
56300;DHT22;42209;6.376;-10.782;2022-09-27T16:24:25;23.80;52.40
56300;DHT22;42209;6.376;-10.782;2022-09-27T16:26:53;23.70;51.60
56300;DHT22;42209;6.376;-10.782;2022-09-27T16:29:22;23.70;51.70
56300;DHT22;42209;6.376;-10.782;2022-09-27T16:31:50;23.80;53.10
56300;DHT22;42209;6.376;-10.782;2022-09-27T16:34:18;23.80;52.20
56300;DHT22;42209;6.376;-10.782;2022-09-27T16:36:48;23.80;51.50
56300;DHT22;42209;6.376;-10.782;2022-09-27T16:39:17;23.80;52.00
56300;DHT22;42209;6.376;-10.782;2022-09-27T16:41:45;23.80;52.80
56300;DHT22;42209;6.376;-10.782;2022-09-27T16:44:14;23.80;52.00
56300;DHT22;42209;6.376;-10.782;2022-09-27T16:46:43;23.80;51.00
56300;DHT22;42209;6.376;-10.782;2022-09-27T16:49:12;23.70;51.00
56300;DHT22;42209;6.376;-10.782;2022-09-27T16:51:40;23.80;52.00
56300;DHT22;42209;6.376;-10.782;2022-09-27T16:54:08;23.90;51.90
56300;DHT22;42209;6.376;-10.782;2022-09-27T16:56:37;23.80;50.60
56300;DHT22;42209;6.376;-10.782;2022-09-27T16:59:05;23.80;51.30
56300;DHT22;42209;6.376;-10.782;2022-09-27T17:01:33;23.90;52.00
56300;DHT22;42209;6.376;-10.782;2022-09-27T17:04:02;23.90;50.90
56300;DHT22;42209;6.376;-10.782;2022-09-27T17:06:30;23.80;50.40
56300;DHT22;42209;6.376;-10.782;2022-09-27T17:09:02;23.80;50.50
56300;DHT22;42209;6.376;-10.782;2022-09-27T17:11:31;23.90;51.30
56300;DHT22;42209;6.376;-10.782;2022-09-27T17:13:58;23.90;51.40
56300;DHT22;42209;6.376;-10.782;2022-09-27T17:16:27;23.90;50.50
56300;DHT22;42209;6.376;-10.782;2022-09-27T17:18:55;23.90;51.20
56300;DHT22;42209;6.376;-10.782;2022-09-27T17:21:24;24.00;51.90
56300;DHT22;42209;6.376;-10.782;2022-09-27T17:23:52;24.00;50.90
56300;DHT22;42209;6.376;-10.782;2022-09-27T17:26:22;23.90;50.50
56300;DHT22;42209;6.376;-10.782;2022-09-27T17:28:51;23.90;50.50
56300;DHT22;42209;6.376;-10.782;2022-09-27T17:31:20;23.90;51.50
56300;DHT22;42209;6.376;-10.782;2022-09-27T17:33:49;23.90;51.70
56300;DHT22;42209;6.376;-10.782;2022-09-27T17:36:26;23.90;50.80
56300;DHT22;42209;6.376;-10.782;2022-09-27T17:38:57;23.90;51.50
56300;DHT22;42209;6.376;-10.782;2022-09-27T17:41:27;23.90;55.20
56300;DHT22;42209;6.376;-10.782;2022-09-27T17:43:59;23.90;54.30
56300;DHT22;42209;6.376;-10.782;2022-09-27T17:46:30;23.80;52.40
56300;DHT22;42209;6.376;-10.782;2022-09-27T17:48:59;23.80;51.90
56300;DHT22;42209;6.376;-10.782;2022-09-27T17:51:27;23.80;53.50
56300;DHT22;42209;6.376;-10.782;2022-09-27T17:53:55;24.00;56.80
56300;DHT22;42209;6.376;-10.782;2022-09-27T17:56:24;23.90;56.30
56300;DHT22;42209;6.376;-10.782;2022-09-27T17:58:54;23.90;54.40
56300;DHT22;42209;6.376;-10.782;2022-09-27T18:01:24;23.80;54.10
56300;DHT22;42209;6.376;-10.782;2022-09-27T18:03:57;23.80;55.80
56300;DHT22;42209;6.376;-10.782;2022-09-27T18:06:27;23.90;57.00
56300;DHT22;42209;6.376;-10.782;2022-09-27T18:08:56;23.90;56.00
56300;DHT22;42209;6.376;-10.782;2022-09-27T18:11:25;23.80;53.80
56300;DHT22;42209;6.376;-10.782;2022-09-27T18:13:55;23.70;53.20
56300;DHT22;42209;6.376;-10.782;2022-09-27T18:16:23;23.70;53.40
56300;DHT22;42209;6.376;-10.782;2022-09-27T18:18:52;23.90;56.00
56300;DHT22;42209;6.376;-10.782;2022-09-27T18:21:20;23.90;58.90
56300;DHT22;42209;6.376;-10.782;2022-09-27T18:23:49;24.00;56.00
56300;DHT22;42209;6.376;-10.782;2022-09-27T18:26:19;23.90;54.50
56300;DHT22;42209;6.376;-10.782;2022-09-27T18:28:48;23.90;54.90
56300;DHT22;42209;6.376;-10.782;2022-09-27T18:31:18;23.90;57.50
56300;DHT22;42209;6.376;-10.782;2022-09-27T18:33:48;24.00;56.60
56300;DHT22;42209;6.376;-10.782;2022-09-27T18:36:18;23.90;55.40
56300;DHT22;42209;6.376;-10.782;2022-09-27T18:38:57;23.90;54.20
56300;DHT22;42209;6.376;-10.782;2022-09-27T18:41:28;23.80;53.80
56300;DHT22;42209;6.376;-10.782;2022-09-27T18:43:59;23.80;54.40
56300;DHT22;42209;6.376;-10.782;2022-09-27T18:46:31;23.90;57.20
56300;DHT22;42209;6.376;-10.782;2022-09-27T18:49:05;24.00;57.10
56300;DHT22;42209;6.376;-10.782;2022-09-27T18:51:33;24.00;54.60
56300;DHT22;42209;6.376;-10.782;2022-09-27T18:54:08;23.90;53.90
56300;DHT22;42209;6.376;-10.782;2022-09-27T18:56:38;23.90;54.70
56300;DHT22;42209;6.376;-10.782;2022-09-27T18:59:08;24.00;57.50
56300;DHT22;42209;6.376;-10.782;2022-09-27T19:01:38;24.00;55.30
56300;DHT22;42209;6.376;-10.782;2022-09-27T19:04:08;23.90;53.30
56300;DHT22;42209;6.376;-10.782;2022-09-27T19:06:38;23.80;52.50
56300;DHT22;42209;6.376;-10.782;2022-09-27T19:09:07;23.80;52.30